createdAt,value
2017-06-27T04:24:23.087Z,0.90
2017-06-27T04:26:51.572Z,0.90
2017-06-27T04:29:19.990Z,1.00
2017-06-27T04:31:48.626Z,1.20
2017-06-27T04:34:17.083Z,1.00
2017-06-27T04:36:45.512Z,1.00
2017-06-27T04:39:14.075Z,1.00
2017-06-27T04:41:42.540Z,0.70
2017-06-27T04:44:11.086Z,1.20
2017-06-27T04:46:39.780Z,0.90
2017-06-27T04:49:09.043Z,1.00
2017-06-27T04:51:37.465Z,0.87
2017-06-27T04:54:06.803Z,0.90
2017-06-27T04:56:35.265Z,1.00
2017-06-27T04:59:03.867Z,1.07
2017-06-27T05:01:32.985Z,1.27
2017-06-27T05:04:01.552Z,0.93
2017-06-27T05:06:30.231Z,1.00
2017-06-27T05:08:58.742Z,1.00
2017-06-27T05:11:27.167Z,1.07
2017-06-27T05:13:55.634Z,1.10
2017-06-27T05:16:24.880Z,1.00
2017-06-27T05:18:53.351Z,0.90
2017-06-27T05:21:21.770Z,0.77
2017-06-27T05:23:50.260Z,1.00
2017-06-27T05:26:18.693Z,1.00
2017-06-27T05:28:47.111Z,1.00
2017-06-27T05:31:15.715Z,0.90
2017-06-27T05:33:44.238Z,1.20
2017-06-27T05:36:12.667Z,1.13
2017-06-27T05:38:41.299Z,1.00
2017-06-27T05:41:09.811Z,0.83
2017-06-27T05:43:38.237Z,1.03
2017-06-27T05:46:06.748Z,1.10
2017-06-27T05:48:35.227Z,1.00
2017-06-27T05:51:03.655Z,0.80
2017-06-27T05:53:32.236Z,1.17
2017-06-27T05:56:00.666Z,1.00
2017-06-27T05:58:29.130Z,1.00
2017-06-27T06:00:57.632Z,1.13
2017-06-27T06:03:26.061Z,1.10
2017-06-27T06:05:54.547Z,1.30
2017-06-27T06:08:22.961Z,0.90
2017-06-27T06:10:51.437Z,1.10
2017-06-27T06:13:19.857Z,0.90
2017-06-27T06:15:48.311Z,1.03
2017-06-27T06:18:16.804Z,1.33
2017-06-27T06:20:45.238Z,1.50
2017-06-27T06:23:13.820Z,1.63
2017-06-27T06:25:42.124Z,1.33
2017-06-27T06:28:10.568Z,1.50
2017-06-27T06:30:39.253Z,1.30
2017-06-27T06:33:07.736Z,1.23
2017-06-27T06:35:36.949Z,1.70
2017-06-27T06:38:05.442Z,2.00
2017-06-27T06:40:33.897Z,1.60
2017-06-27T06:43:02.327Z,1.90
2017-06-27T06:45:30.806Z,2.00
2017-06-27T06:47:59.242Z,1.73
2017-06-27T06:50:27.921Z,1.70
2017-06-27T06:52:56.610Z,1.50
2017-06-27T06:55:25.058Z,2.03
2017-06-27T06:57:53.498Z,1.73
2017-06-27T07:00:22.673Z,1.50
2017-06-27T07:02:51.885Z,1.60
2017-06-27T07:05:20.329Z,1.63
2017-06-27T07:07:48.927Z,1.80
2017-06-27T07:10:17.405Z,1.53
2017-06-27T07:12:45.841Z,1.30
2017-06-27T07:15:14.271Z,1.50
2017-06-27T07:17:42.853Z,1.70
2017-06-27T07:20:11.279Z,1.70
2017-06-27T07:22:40.028Z,1.20
2017-06-27T07:25:08.502Z,1.60
2017-06-27T07:27:37.909Z,1.40
2017-06-27T07:30:06.015Z,1.40
2017-06-27T07:32:34.511Z,1.70
2017-06-27T07:35:03.149Z,1.60
2017-06-27T07:37:32.545Z,1.37
2017-06-27T07:40:01.127Z,1.20
2017-06-27T07:42:29.546Z,1.70
2017-06-27T07:44:58.092Z,1.53
2017-06-27T07:47:26.692Z,1.47
2017-06-27T07:49:55.884Z,1.13
2017-06-27T07:52:24.329Z,1.60
2017-06-27T07:54:52.835Z,1.60
2017-06-27T07:57:22.235Z,1.40
2017-06-27T07:59:51.625Z,1.37
2017-06-27T08:02:20.055Z,1.33
2017-06-27T08:04:48.477Z,1.60
2017-06-27T08:07:16.955Z,1.33
2017-06-27T08:09:45.410Z,1.20
2017-06-27T08:12:13.977Z,1.23
2017-06-27T08:14:42.452Z,1.50
2017-06-27T08:17:10.953Z,1.30
2017-06-27T08:19:39.430Z,1.23
2017-06-27T08:22:07.686Z,1.53
2017-06-27T08:24:36.118Z,1.60
2017-06-27T08:27:04.606Z,1.50
2017-06-27T08:29:33.805Z,1.40
2017-06-27T08:32:02.259Z,1.40
2017-06-27T08:34:30.919Z,1.60
2017-06-27T08:36:59.494Z,1.73
2017-06-27T08:39:27.933Z,1.17
2017-06-27T08:41:56.398Z,1.67
2017-06-27T08:44:24.938Z,1.50
2017-06-27T08:46:53.625Z,1.00
2017-06-27T08:49:22.313Z,1.33
2017-06-27T08:51:50.729Z,1.30
2017-06-27T08:54:19.161Z,1.30
2017-06-27T08:56:47.861Z,1.43
2017-06-27T08:59:16.342Z,1.20
2017-06-27T09:01:44.770Z,1.57
2017-06-27T09:04:13.260Z,1.10
2017-06-27T09:06:41.686Z,1.00
2017-06-27T09:09:10.279Z,1.00
2017-06-27T09:11:38.717Z,1.00
2017-06-27T09:14:07.144Z,1.27
2017-06-27T09:16:35.886Z,1.27
2017-06-27T09:19:04.319Z,1.20
2017-06-27T09:21:32.974Z,0.97
2017-06-27T09:24:01.454Z,1.10
2017-06-27T09:26:29.885Z,0.90
2017-06-27T09:28:58.417Z,1.10
2017-06-27T09:31:26.896Z,1.03
2017-06-27T09:33:55.326Z,1.20
2017-06-27T09:36:23.757Z,1.20
2017-06-27T09:38:52.241Z,1.00
2017-06-27T09:41:20.720Z,1.20
2017-06-27T09:43:49.160Z,1.23
2017-06-27T09:46:17.788Z,1.00
2017-06-27T09:48:46.266Z,1.00
2017-06-27T09:51:14.717Z,1.33
2017-06-27T09:53:43.327Z,1.07
2017-06-27T09:56:11.791Z,1.07
2017-06-27T09:58:40.243Z,1.00
2017-06-27T10:01:08.703Z,0.90
2017-06-27T10:03:37.253Z,0.90
2017-06-27T10:06:05.698Z,0.73
2017-06-27T10:08:34.319Z,1.20
2017-06-27T10:11:02.799Z,0.80
2017-06-27T10:13:31.284Z,1.00
2017-06-27T10:15:59.827Z,0.90
2017-06-27T10:18:28.254Z,0.80
2017-06-27T10:20:56.885Z,0.83
2017-06-27T10:23:25.317Z,0.70
2017-06-27T10:25:53.950Z,1.00
2017-06-27T10:28:22.380Z,0.93
2017-06-27T10:30:50.874Z,0.90
2017-06-27T10:33:19.308Z,1.20
2017-06-27T10:35:48.505Z,1.00
2017-06-27T10:38:16.968Z,1.10
2017-06-27T10:40:45.401Z,0.70
2017-06-27T10:43:13.931Z,1.00
2017-06-27T10:45:42.364Z,1.00
2017-06-27T10:48:10.797Z,1.10
2017-06-27T10:50:39.376Z,0.80
2017-06-27T10:53:07.805Z,1.00
2017-06-27T10:55:36.232Z,0.90
2017-06-27T10:58:04.921Z,1.00
2017-06-27T11:00:33.346Z,0.90
2017-06-27T11:03:01.769Z,1.00
2017-06-27T11:05:30.243Z,1.07
2017-06-27T11:07:58.657Z,1.10
2017-06-27T11:10:27.280Z,1.10
2017-06-27T11:12:55.763Z,1.10
2017-06-27T11:15:24.277Z,1.10
2017-06-27T11:17:52.700Z,1.33
2017-06-27T11:20:21.150Z,0.90
2017-06-27T11:22:49.606Z,1.20
2017-06-27T11:25:18.169Z,1.13
2017-06-27T11:27:46.652Z,0.90
2017-06-27T11:30:15.339Z,1.10
2017-06-27T11:32:44.019Z,1.30
2017-06-27T11:35:12.603Z,0.83
2017-06-27T11:37:41.032Z,0.70
2017-06-27T11:40:09.670Z,0.90
2017-06-27T11:42:38.331Z,1.07
2017-06-27T11:45:06.951Z,1.20
2017-06-27T11:47:35.837Z,0.83
2017-06-27T11:50:04.264Z,0.70
2017-06-27T11:52:33.463Z,1.20
2017-06-27T11:55:02.089Z,0.97
2017-06-27T11:57:30.671Z,0.90
2017-06-27T12:00:10.386Z,0.70
2017-06-27T12:02:38.795Z,1.07
2017-06-27T12:05:18.403Z,1.00
2017-06-27T12:07:46.160Z,1.20
2017-06-27T12:10:14.683Z,0.97
2017-06-27T12:12:43.332Z,1.00
2017-06-27T12:15:11.778Z,1.00
2017-06-27T12:17:41.690Z,1.10
2017-06-27T12:20:10.120Z,1.20
2017-06-27T12:22:38.547Z,1.30
2017-06-27T12:25:07.013Z,1.50
2017-06-27T12:27:35.438Z,0.90
2017-06-27T12:30:03.883Z,1.13
2017-06-27T12:32:32.360Z,0.97
2017-06-27T12:35:00.792Z,1.43
2017-06-27T12:37:29.293Z,1.30
2017-06-27T12:39:57.843Z,1.73
2017-06-27T12:42:26.427Z,1.50
2017-06-27T12:44:54.891Z,1.43
2017-06-27T12:47:23.496Z,1.63
2017-06-27T12:49:51.930Z,1.60
2017-06-27T12:52:20.406Z,1.10
2017-06-27T12:54:48.992Z,1.67
2017-06-27T12:57:17.477Z,1.40
2017-06-27T12:59:45.901Z,1.67
2017-06-27T13:02:14.354Z,1.47
2017-06-27T13:04:42.979Z,1.30
2017-06-27T13:07:11.558Z,1.63
2017-06-27T13:09:39.988Z,1.60
2017-06-27T13:12:08.491Z,1.50
2017-06-27T13:14:36.957Z,1.87
2017-06-27T13:17:05.640Z,1.70
2017-06-27T13:19:34.941Z,1.93
2017-06-27T13:22:03.380Z,1.60
2017-06-27T13:24:32.005Z,2.30
2017-06-27T13:27:00.503Z,1.77
2017-06-27T13:29:28.933Z,1.53
2017-06-27T13:31:57.366Z,2.03
2017-06-27T13:34:25.853Z,1.90
2017-06-27T13:36:54.285Z,2.00
2017-06-27T13:39:22.710Z,1.97
2017-06-27T13:41:51.970Z,2.03
2017-06-27T13:44:20.570Z,2.37
2017-06-27T13:46:49.002Z,2.07
2017-06-27T13:49:17.503Z,2.00
2017-06-27T13:51:46.066Z,2.23
2017-06-27T13:54:14.499Z,1.90
2017-06-27T13:56:42.984Z,2.43
2017-06-27T13:59:11.458Z,2.17
2017-06-27T14:01:39.896Z,2.63
2017-06-27T14:04:08.383Z,2.40
2017-06-27T14:06:36.840Z,2.53
2017-06-27T14:09:04.662Z,2.27
2017-06-27T14:11:33.156Z,3.17
2017-06-27T14:14:01.591Z,2.60
2017-06-27T14:16:30.022Z,2.57
2017-06-27T14:18:58.485Z,2.70
2017-06-27T14:21:27.004Z,2.20
2017-06-27T14:23:55.431Z,2.77
2017-06-27T14:26:23.906Z,2.40
2017-06-27T14:28:52.345Z,2.50
2017-06-27T14:31:20.991Z,2.60
2017-06-27T14:33:49.493Z,2.43
2017-06-27T14:36:18.617Z,2.90
2017-06-27T14:38:47.071Z,2.47
2017-06-27T14:41:15.712Z,2.67
2017-06-27T14:43:44.153Z,2.60
2017-06-27T14:46:12.595Z,2.87
2017-06-27T14:48:41.055Z,2.80
2017-06-27T14:51:09.496Z,2.63
2017-06-27T14:53:38.248Z,2.87
2017-06-27T14:56:06.929Z,2.97
2017-06-27T14:58:35.390Z,2.80
2017-06-27T15:01:03.812Z,2.83
2017-06-27T15:03:32.476Z,2.90
2017-06-27T15:06:00.927Z,2.83
2017-06-27T15:08:29.364Z,2.97
2017-06-27T15:10:57.873Z,2.77
2017-06-27T15:13:26.328Z,2.80
2017-06-27T15:15:54.886Z,2.80
2017-06-27T15:18:23.382Z,2.80
2017-06-27T15:20:51.946Z,3.63
2017-06-27T15:23:20.394Z,3.00
2017-06-27T15:25:49.006Z,3.20
2017-06-27T15:28:17.452Z,3.10
2017-06-27T15:30:45.888Z,3.60
2017-06-27T15:33:14.552Z,3.07
2017-06-27T15:35:43.138Z,2.60
2017-06-27T15:38:11.576Z,2.93
2017-06-27T15:40:40.208Z,3.10
2017-06-27T15:43:08.770Z,3.27
2017-06-27T15:45:37.205Z,3.10
2017-06-27T15:48:05.930Z,2.67
2017-06-27T15:50:34.397Z,3.20
2017-06-27T15:53:02.828Z,2.80
2017-06-27T15:55:31.305Z,3.07
2017-06-27T16:00:34.626Z,3.37
2017-06-27T16:03:03.085Z,3.00
2017-06-27T16:05:31.757Z,2.80
2017-06-27T16:08:01.274Z,3.17
2017-06-27T16:10:29.822Z,3.13
2017-06-27T16:12:58.443Z,2.87
2017-06-27T16:15:26.921Z,3.03
2017-06-27T16:17:55.403Z,2.83
2017-06-27T16:20:23.848Z,3.10
2017-06-27T16:22:52.304Z,3.00
2017-06-27T16:25:20.732Z,2.80
2017-06-27T16:27:49.224Z,2.87
2017-06-27T16:30:17.811Z,2.80
2017-06-27T16:32:46.289Z,3.30
2017-06-27T16:35:14.789Z,2.53
2017-06-27T16:37:43.256Z,2.77
2017-06-27T16:40:11.735Z,2.70
2017-06-27T16:42:40.416Z,2.90
2017-06-27T16:45:08.860Z,2.60
2017-06-27T16:47:37.291Z,2.67
2017-06-27T16:50:05.864Z,2.70
2017-06-27T16:52:34.292Z,3.23
2017-06-27T16:55:02.797Z,2.83
2017-06-27T16:57:31.307Z,3.03
2017-06-27T16:59:59.786Z,2.70
2017-06-27T17:02:28.369Z,2.50
2017-06-27T17:04:57.367Z,2.33
2017-06-27T17:07:25.841Z,2.53
2017-06-27T17:09:54.270Z,2.43
2017-06-27T17:12:22.695Z,2.27
2017-06-27T17:14:51.335Z,2.80
2017-06-27T17:17:19.869Z,2.63
2017-06-27T17:19:48.320Z,2.47
2017-06-27T17:22:16.939Z,2.60
2017-06-27T17:24:45.367Z,2.33
2017-06-27T17:27:13.998Z,2.60
2017-06-27T17:29:42.682Z,2.47
2017-06-27T17:32:11.134Z,2.53
2017-06-27T17:34:39.609Z,2.67
2017-06-27T17:37:08.127Z,2.70
2017-06-27T17:39:36.812Z,2.77
2017-06-27T17:42:05.236Z,2.50
2017-06-27T17:44:33.649Z,2.60
2017-06-27T17:47:02.262Z,2.67
2017-06-27T17:49:30.693Z,2.47
2017-06-27T17:51:59.320Z,2.50
2017-06-27T17:54:28.010Z,2.03
2017-06-27T17:56:56.471Z,2.37
2017-06-27T17:59:24.895Z,2.40
2017-06-27T18:01:53.452Z,2.47
2017-06-27T18:04:21.886Z,2.30
2017-06-27T18:06:50.349Z,2.07
2017-06-27T18:09:18.781Z,2.57
2017-06-27T18:11:47.271Z,2.10
2017-06-27T18:14:15.768Z,2.70
2017-06-27T18:16:44.184Z,2.50
2017-06-27T18:19:12.717Z,2.00
2017-06-27T18:21:41.207Z,2.13
2017-06-27T18:24:09.783Z,2.23
2017-06-27T18:26:38.208Z,2.13
2017-06-27T18:29:06.843Z,2.13
2017-06-27T18:31:35.356Z,2.63
2017-06-27T18:34:03.817Z,2.60
2017-06-27T18:36:32.326Z,2.60
2017-06-27T18:39:00.975Z,2.10
2017-06-27T18:41:29.351Z,2.17
2017-06-27T18:43:57.787Z,2.27
2017-06-27T18:46:26.334Z,2.30
2017-06-27T18:48:55.099Z,2.13
2017-06-27T18:51:23.639Z,1.87
2017-06-27T18:53:52.246Z,2.63
2017-06-27T18:56:21.157Z,2.50
2017-06-27T18:58:49.737Z,2.30
2017-06-27T19:01:18.837Z,2.10
2017-06-27T19:03:47.296Z,2.10
2017-06-27T19:06:16.232Z,2.10
2017-06-27T19:08:45.363Z,2.50
2017-06-27T19:11:14.358Z,2.00
2017-06-27T19:13:43.803Z,1.93
2017-06-27T19:16:12.355Z,2.30
2017-06-27T19:18:41.362Z,2.30
2017-06-27T19:21:10.169Z,2.07
2017-06-27T19:23:39.053Z,2.17
2017-06-27T19:26:08.154Z,1.93
2017-06-27T19:28:37.155Z,2.00
2017-06-27T19:31:07.060Z,1.97
2017-06-27T19:33:35.747Z,2.33
2017-06-27T19:36:04.891Z,2.07
2017-06-27T19:38:33.507Z,2.27
2017-06-27T19:41:02.955Z,2.63
2017-06-27T19:43:33.253Z,1.90
2017-06-27T19:46:02.553Z,2.30
2017-06-27T19:48:31.854Z,2.03
2017-06-27T19:51:00.847Z,2.20
2017-06-27T19:53:30.123Z,2.17
2017-06-27T19:55:59.217Z,1.67
2017-06-27T19:58:28.309Z,1.87
2017-06-27T20:00:57.435Z,1.77
2017-06-27T20:03:27.050Z,2.40
2017-06-27T20:05:57.451Z,2.10
2017-06-27T20:08:26.735Z,1.97
2017-06-27T20:10:55.795Z,1.87
2017-06-27T20:13:25.075Z,2.03
2017-06-27T20:15:54.770Z,2.30
2017-06-27T20:18:23.865Z,2.20
2017-06-27T20:20:53.300Z,1.93
2017-06-27T20:23:22.059Z,2.70
2017-06-27T20:25:51.215Z,1.90
2017-06-27T20:28:19.737Z,2.03
2017-06-27T20:30:48.178Z,2.20
2017-06-27T20:33:17.297Z,2.20
2017-06-27T20:35:47.627Z,1.93
2017-06-27T20:38:16.779Z,2.00
2017-06-27T20:40:45.286Z,1.80
2017-06-27T20:43:13.856Z,2.10
2017-06-27T20:45:42.539Z,2.10
2017-06-27T20:48:11.005Z,2.00
2017-06-27T20:50:39.608Z,2.30
2017-06-27T20:53:08.059Z,1.60
2017-06-27T20:55:36.546Z,1.67
2017-06-27T20:58:04.974Z,1.80
2017-06-27T21:00:33.405Z,1.50
2017-06-27T21:03:02.112Z,1.90
2017-06-27T21:05:30.660Z,2.20
2017-06-27T21:07:59.368Z,1.90
2017-06-27T21:10:27.837Z,1.53
2017-06-27T21:12:56.549Z,2.00
2017-06-27T21:15:25.002Z,1.73
2017-06-27T21:17:53.560Z,2.00
2017-06-27T21:20:22.043Z,2.00
2017-06-27T21:22:50.593Z,2.00
2017-06-27T21:25:19.603Z,1.70
2017-06-27T21:27:48.070Z,2.07
2017-06-27T21:30:16.623Z,2.03
2017-06-27T21:32:46.670Z,1.70
2017-06-27T21:35:15.133Z,1.60
2017-06-27T21:37:43.675Z,2.30
2017-06-27T21:40:12.140Z,1.80
2017-06-27T21:42:40.839Z,1.83
2017-06-27T21:45:09.312Z,1.60
2017-06-27T21:47:37.845Z,1.87
2017-06-27T21:50:06.519Z,2.00
2017-06-27T21:52:34.946Z,1.90
2017-06-27T21:55:03.593Z,2.13
2017-06-27T21:57:32.011Z,1.70
2017-06-27T22:00:00.425Z,1.63
2017-06-27T22:02:28.915Z,2.00
2017-06-27T22:04:57.412Z,2.47
2017-06-27T22:07:25.858Z,2.00
2017-06-27T22:09:54.342Z,1.77
2017-06-27T22:12:22.763Z,1.97
2017-06-27T22:14:52.284Z,2.00
2017-06-27T22:17:20.751Z,2.10
2017-06-27T22:19:49.953Z,2.03
2017-06-27T22:22:18.382Z,2.23
2017-06-27T22:24:46.902Z,1.87
2017-06-27T22:27:14.995Z,1.80
2017-06-27T22:29:43.411Z,1.67
2017-06-27T22:32:12.035Z,2.33
2017-06-27T22:34:40.464Z,2.17
2017-06-27T22:37:09.101Z,2.17
2017-06-27T22:39:37.617Z,1.90
2017-06-27T22:42:06.068Z,1.80
2017-06-27T22:44:35.290Z,1.90
2017-06-27T22:47:03.843Z,1.83
2017-06-27T22:49:32.274Z,2.10
2017-06-27T22:52:00.720Z,2.13
2017-06-27T22:54:29.211Z,1.60
2017-06-27T22:56:57.630Z,1.50
2017-06-27T22:59:26.046Z,1.80
2017-06-27T23:01:54.728Z,1.63
2017-06-27T23:04:23.162Z,1.97
2017-06-27T23:06:53.348Z,1.70
2017-06-27T23:09:22.017Z,1.80
2017-06-27T23:11:50.792Z,1.80
2017-06-27T23:14:19.387Z,1.90
2017-06-27T23:16:47.892Z,1.80
2017-06-27T23:19:16.313Z,1.60
2017-06-27T23:21:44.740Z,2.03
2017-06-27T23:24:13.974Z,1.80
2017-06-27T23:26:42.521Z,1.70
2017-06-27T23:29:11.608Z,1.63
2017-06-27T23:31:40.188Z,2.10
2017-06-27T23:34:08.616Z,2.10
2017-06-27T23:36:37.246Z,1.70
2017-06-27T23:39:05.709Z,1.70
2017-06-27T23:41:34.128Z,1.93
2017-06-27T23:44:02.603Z,1.90
2017-06-27T23:46:31.797Z,1.70
2017-06-27T23:49:00.225Z,1.30
2017-06-27T23:51:28.704Z,1.80
2017-06-27T23:53:57.133Z,1.73
2017-06-27T23:56:25.630Z,2.03
2017-06-27T23:58:54.093Z,1.70
